sensor_id;sensor_type;location;lat;lon;timestamp;P1;durP1;ratioP1;P2;durP2;ratioP2
43248;SDS011;29216;51.248;6.808;2022-11-20T00:02:01;14.63;;;9.82;;
43248;SDS011;29216;51.248;6.808;2022-11-20T00:04:26;13.80;;;9.23;;
43248;SDS011;29216;51.248;6.808;2022-11-20T00:06:52;13.57;;;9.07;;
43248;SDS011;29216;51.248;6.808;2022-11-20T00:09:18;15.02;;;9.70;;
43248;SDS011;29216;51.248;6.808;2022-11-20T00:11:44;14.63;;;10.02;;
43248;SDS011;29216;51.248;6.808;2022-11-20T00:14:09;14.48;;;8.98;;
43248;SDS011;29216;51.248;6.808;2022-11-20T00:16:35;16.98;;;9.98;;
43248;SDS011;29216;51.248;6.808;2022-11-20T00:19:01;15.32;;;9.85;;
43248;SDS011;29216;51.248;6.808;2022-11-20T00:21:27;16.48;;;9.98;;
43248;SDS011;29216;51.248;6.808;2022-11-20T00:23:54;15.52;;;10.60;;
43248;SDS011;29216;51.248;6.808;2022-11-20T00:26:20;15.18;;;9.40;;
43248;SDS011;29216;51.248;6.808;2022-11-20T00:28:49;17.23;;;11.10;;
43248;SDS011;29216;51.248;6.808;2022-11-20T00:31:16;15.30;;;10.35;;
43248;SDS011;29216;51.248;6.808;2022-11-20T00:33:43;17.45;;;10.40;;
43248;SDS011;29216;51.248;6.808;2022-11-20T00:36:10;15.80;;;10.70;;
43248;SDS011;29216;51.248;6.808;2022-11-20T00:38:41;18.65;;;11.27;;
43248;SDS011;29216;51.248;6.808;2022-11-20T00:41:08;17.33;;;11.45;;
43248;SDS011;29216;51.248;6.808;2022-11-20T00:43:35;19.92;;;12.70;;
43248;SDS011;29216;51.248;6.808;2022-11-20T00:46:03;16.25;;;10.45;;
43248;SDS011;29216;51.248;6.808;2022-11-20T00:48:30;17.77;;;11.60;;
43248;SDS011;29216;51.248;6.808;2022-11-20T00:50:56;17.63;;;11.45;;
43248;SDS011;29216;51.248;6.808;2022-11-20T00:53:22;19.23;;;11.80;;
43248;SDS011;29216;51.248;6.808;2022-11-20T00:55:58;18.60;;;11.77;;
43248;SDS011;29216;51.248;6.808;2022-11-20T00:58:28;17.52;;;11.70;;
43248;SDS011;29216;51.248;6.808;2022-11-20T01:03:39;18.90;;;12.18;;
43248;SDS011;29216;51.248;6.808;2022-11-20T01:08:42;19.83;;;12.60;;
43248;SDS011;29216;51.248;6.808;2022-11-20T01:11:16;18.95;;;12.43;;
43248;SDS011;29216;51.248;6.808;2022-11-20T01:13:44;19.05;;;12.43;;
43248;SDS011;29216;51.248;6.808;2022-11-20T01:16:15;20.55;;;12.77;;
43248;SDS011;29216;51.248;6.808;2022-11-20T01:18:43;22.80;;;13.27;;
43248;SDS011;29216;51.248;6.808;2022-11-20T01:21:23;19.33;;;12.70;;
43248;SDS011;29216;51.248;6.808;2022-11-20T01:23:50;20.90;;;12.27;;
43248;SDS011;29216;51.248;6.808;2022-11-20T01:26:18;19.42;;;12.30;;
43248;SDS011;29216;51.248;6.808;2022-11-20T01:28:46;18.42;;;12.27;;
43248;SDS011;29216;51.248;6.808;2022-11-20T01:31:13;20.55;;;12.30;;
43248;SDS011;29216;51.248;6.808;2022-11-20T01:33:44;19.52;;;12.07;;
43248;SDS011;29216;51.248;6.808;2022-11-20T01:36:12;21.33;;;12.55;;
43248;SDS011;29216;51.248;6.808;2022-11-20T01:38:39;18.13;;;11.65;;
43248;SDS011;29216;51.248;6.808;2022-11-20T01:41:05;21.65;;;12.68;;
43248;SDS011;29216;51.248;6.808;2022-11-20T01:43:31;18.92;;;11.95;;
43248;SDS011;29216;51.248;6.808;2022-11-20T01:48:48;20.80;;;12.27;;
43248;SDS011;29216;51.248;6.808;2022-11-20T01:51:50;19.25;;;11.80;;
43248;SDS011;29216;51.248;6.808;2022-11-20T01:54:23;21.60;;;12.55;;
43248;SDS011;29216;51.248;6.808;2022-11-20T01:57:00;19.20;;;12.13;;
43248;SDS011;29216;51.248;6.808;2022-11-20T01:59:26;18.55;;;11.88;;
43248;SDS011;29216;51.248;6.808;2022-11-20T02:01:54;18.20;;;11.73;;
43248;SDS011;29216;51.248;6.808;2022-11-20T02:04:20;20.42;;;13.20;;
43248;SDS011;29216;51.248;6.808;2022-11-20T02:06:52;19.42;;;11.57;;
43248;SDS011;29216;51.248;6.808;2022-11-20T02:09:25;19.30;;;12.27;;
43248;SDS011;29216;51.248;6.808;2022-11-20T02:11:52;18.33;;;11.63;;
43248;SDS011;29216;51.248;6.808;2022-11-20T02:14:18;19.33;;;12.35;;
43248;SDS011;29216;51.248;6.808;2022-11-20T02:16:45;21.08;;;13.20;;
43248;SDS011;29216;51.248;6.808;2022-11-20T02:19:19;21.88;;;13.73;;
43248;SDS011;29216;51.248;6.808;2022-11-20T02:24:46;21.65;;;12.95;;
43248;SDS011;29216;51.248;6.808;2022-11-20T02:27:14;21.40;;;13.90;;
43248;SDS011;29216;51.248;6.808;2022-11-20T02:32:21;21.98;;;13.70;;
43248;SDS011;29216;51.248;6.808;2022-11-20T02:34:46;19.38;;;13.13;;
43248;SDS011;29216;51.248;6.808;2022-11-20T02:37:12;21.35;;;12.52;;
43248;SDS011;29216;51.248;6.808;2022-11-20T02:39:39;23.05;;;13.73;;
43248;SDS011;29216;51.248;6.808;2022-11-20T02:42:06;20.13;;;11.98;;
43248;SDS011;29216;51.248;6.808;2022-11-20T02:44:32;22.90;;;13.05;;
43248;SDS011;29216;51.248;6.808;2022-11-20T02:46:58;21.60;;;13.90;;
43248;SDS011;29216;51.248;6.808;2022-11-20T02:49:24;24.30;;;12.35;;
43248;SDS011;29216;51.248;6.808;2022-11-20T02:51:50;20.90;;;12.80;;
43248;SDS011;29216;51.248;6.808;2022-11-20T02:54:15;21.08;;;13.10;;
43248;SDS011;29216;51.248;6.808;2022-11-20T02:56:41;22.58;;;12.57;;
43248;SDS011;29216;51.248;6.808;2022-11-20T02:59:07;22.65;;;13.55;;
43248;SDS011;29216;51.248;6.808;2022-11-20T03:01:32;22.73;;;13.38;;
43248;SDS011;29216;51.248;6.808;2022-11-20T03:03:58;25.02;;;13.68;;
43248;SDS011;29216;51.248;6.808;2022-11-20T03:06:24;21.17;;;13.45;;
43248;SDS011;29216;51.248;6.808;2022-11-20T03:08:49;22.33;;;13.02;;
43248;SDS011;29216;51.248;6.808;2022-11-20T03:11:15;22.27;;;12.82;;
43248;SDS011;29216;51.248;6.808;2022-11-20T03:13:41;19.13;;;12.55;;
43248;SDS011;29216;51.248;6.808;2022-11-20T03:16:11;20.05;;;13.60;;
43248;SDS011;29216;51.248;6.808;2022-11-20T03:18:39;19.58;;;12.82;;
43248;SDS011;29216;51.248;6.808;2022-11-20T03:21:06;22.83;;;13.82;;
43248;SDS011;29216;51.248;6.808;2022-11-20T03:23:33;23.80;;;13.43;;
43248;SDS011;29216;51.248;6.808;2022-11-20T03:26:09;21.77;;;13.90;;
43248;SDS011;29216;51.248;6.808;2022-11-20T03:28:37;21.27;;;13.65;;
43248;SDS011;29216;51.248;6.808;2022-11-20T03:31:06;21.67;;;13.70;;
43248;SDS011;29216;51.248;6.808;2022-11-20T03:33:37;20.27;;;12.70;;
43248;SDS011;29216;51.248;6.808;2022-11-20T03:36:05;21.17;;;13.95;;
43248;SDS011;29216;51.248;6.808;2022-11-20T03:38:32;22.05;;;13.70;;
43248;SDS011;29216;51.248;6.808;2022-11-20T03:40:59;20.80;;;12.95;;
43248;SDS011;29216;51.248;6.808;2022-11-20T03:43:29;22.25;;;13.48;;
43248;SDS011;29216;51.248;6.808;2022-11-20T03:45:55;23.60;;;13.38;;
43248;SDS011;29216;51.248;6.808;2022-11-20T03:48:20;24.30;;;14.10;;
43248;SDS011;29216;51.248;6.808;2022-11-20T03:50:46;21.48;;;13.43;;
43248;SDS011;29216;51.248;6.808;2022-11-20T03:53:13;21.70;;;13.15;;
43248;SDS011;29216;51.248;6.808;2022-11-20T03:55:39;21.58;;;12.68;;
43248;SDS011;29216;51.248;6.808;2022-11-20T03:58:04;19.20;;;12.65;;
43248;SDS011;29216;51.248;6.808;2022-11-20T04:00:30;22.40;;;13.55;;
43248;SDS011;29216;51.248;6.808;2022-11-20T04:03:00;19.95;;;12.82;;
43248;SDS011;29216;51.248;6.808;2022-11-20T04:05:27;22.08;;;12.98;;
43248;SDS011;29216;51.248;6.808;2022-11-20T04:07:53;18.05;;;11.85;;
43248;SDS011;29216;51.248;6.808;2022-11-20T04:10:19;22.00;;;12.32;;
43248;SDS011;29216;51.248;6.808;2022-11-20T04:12:44;21.52;;;13.05;;
43248;SDS011;29216;51.248;6.808;2022-11-20T04:15:10;21.58;;;12.85;;
43248;SDS011;29216;51.248;6.808;2022-11-20T04:17:36;20.33;;;12.80;;
43248;SDS011;29216;51.248;6.808;2022-11-20T04:20:02;20.90;;;12.63;;
43248;SDS011;29216;51.248;6.808;2022-11-20T04:22:28;20.38;;;12.35;;
43248;SDS011;29216;51.248;6.808;2022-11-20T04:24:53;18.45;;;12.23;;
43248;SDS011;29216;51.248;6.808;2022-11-20T04:27:19;18.27;;;12.18;;
43248;SDS011;29216;51.248;6.808;2022-11-20T04:29:44;19.15;;;11.88;;
43248;SDS011;29216;51.248;6.808;2022-11-20T04:32:10;15.93;;;10.98;;
43248;SDS011;29216;51.248;6.808;2022-11-20T04:34:35;20.98;;;12.52;;
43248;SDS011;29216;51.248;6.808;2022-11-20T04:37:01;18.25;;;12.18;;
43248;SDS011;29216;51.248;6.808;2022-11-20T04:39:27;18.67;;;11.90;;
43248;SDS011;29216;51.248;6.808;2022-11-20T04:41:52;19.08;;;12.32;;
43248;SDS011;29216;51.248;6.808;2022-11-20T04:44:38;15.77;;;10.25;;
43248;SDS011;29216;51.248;6.808;2022-11-20T04:47:04;18.42;;;12.38;;
43248;SDS011;29216;51.248;6.808;2022-11-20T04:49:30;17.48;;;11.30;;
43248;SDS011;29216;51.248;6.808;2022-11-20T04:51:56;16.58;;;11.25;;
43248;SDS011;29216;51.248;6.808;2022-11-20T04:54:22;17.95;;;11.98;;
43248;SDS011;29216;51.248;6.808;2022-11-20T04:56:48;20.45;;;12.52;;
43248;SDS011;29216;51.248;6.808;2022-11-20T04:59:14;19.70;;;11.57;;
43248;SDS011;29216;51.248;6.808;2022-11-20T05:01:40;19.23;;;12.77;;
43248;SDS011;29216;51.248;6.808;2022-11-20T05:04:05;22.45;;;11.93;;
43248;SDS011;29216;51.248;6.808;2022-11-20T05:06:31;19.27;;;13.40;;
43248;SDS011;29216;51.248;6.808;2022-11-20T05:08:57;24.10;;;13.95;;
43248;SDS011;29216;51.248;6.808;2022-11-20T05:11:23;20.33;;;12.93;;
43248;SDS011;29216;51.248;6.808;2022-11-20T05:13:49;17.17;;;11.95;;
43248;SDS011;29216;51.248;6.808;2022-11-20T05:16:17;20.40;;;11.63;;
43248;SDS011;29216;51.248;6.808;2022-11-20T05:18:44;21.77;;;12.10;;
43248;SDS011;29216;51.248;6.808;2022-11-20T05:21:11;20.83;;;13.10;;
43248;SDS011;29216;51.248;6.808;2022-11-20T05:23:37;20.20;;;13.23;;
43248;SDS011;29216;51.248;6.808;2022-11-20T05:26:04;20.58;;;12.63;;
43248;SDS011;29216;51.248;6.808;2022-11-20T05:28:31;20.70;;;12.43;;
43248;SDS011;29216;51.248;6.808;2022-11-20T05:31:07;20.40;;;12.63;;
43248;SDS011;29216;51.248;6.808;2022-11-20T05:33:34;23.92;;;13.30;;
43248;SDS011;29216;51.248;6.808;2022-11-20T05:36:01;19.90;;;12.65;;
43248;SDS011;29216;51.248;6.808;2022-11-20T05:38:28;18.85;;;12.57;;
43248;SDS011;29216;51.248;6.808;2022-11-20T05:40:53;23.48;;;14.32;;
43248;SDS011;29216;51.248;6.808;2022-11-20T05:43:19;21.60;;;13.82;;
43248;SDS011;29216;51.248;6.808;2022-11-20T05:45:51;22.45;;;13.32;;
43248;SDS011;29216;51.248;6.808;2022-11-20T05:48:20;21.70;;;13.27;;
43248;SDS011;29216;51.248;6.808;2022-11-20T05:50:46;18.73;;;12.38;;
43248;SDS011;29216;51.248;6.808;2022-11-20T05:53:13;22.83;;;13.25;;
43248;SDS011;29216;51.248;6.808;2022-11-20T05:55:38;22.75;;;14.07;;
43248;SDS011;29216;51.248;6.808;2022-11-20T05:58:04;25.52;;;13.98;;
43248;SDS011;29216;51.248;6.808;2022-11-20T06:00:29;22.02;;;13.48;;
43248;SDS011;29216;51.248;6.808;2022-11-20T06:02:55;24.42;;;13.38;;
43248;SDS011;29216;51.248;6.808;2022-11-20T06:05:21;20.83;;;12.98;;
43248;SDS011;29216;51.248;6.808;2022-11-20T06:07:46;24.33;;;14.25;;
43248;SDS011;29216;51.248;6.808;2022-11-20T06:10:12;22.15;;;13.20;;
43248;SDS011;29216;51.248;6.808;2022-11-20T06:12:37;18.98;;;12.50;;
43248;SDS011;29216;51.248;6.808;2022-11-20T06:15:03;20.83;;;12.77;;
43248;SDS011;29216;51.248;6.808;2022-11-20T06:17:30;21.38;;;13.85;;
43248;SDS011;29216;51.248;6.808;2022-11-20T06:19:55;19.75;;;12.98;;
43248;SDS011;29216;51.248;6.808;2022-11-20T06:22:21;19.33;;;12.60;;
43248;SDS011;29216;51.248;6.808;2022-11-20T06:24:47;21.63;;;12.68;;
43248;SDS011;29216;51.248;6.808;2022-11-20T06:27:12;19.92;;;12.95;;
43248;SDS011;29216;51.248;6.808;2022-11-20T06:29:38;21.95;;;12.82;;
43248;SDS011;29216;51.248;6.808;2022-11-20T06:32:04;21.15;;;13.20;;
43248;SDS011;29216;51.248;6.808;2022-11-20T06:34:29;18.63;;;12.30;;
43248;SDS011;29216;51.248;6.808;2022-11-20T06:36:55;19.05;;;12.52;;
43248;SDS011;29216;51.248;6.808;2022-11-20T06:39:20;20.10;;;13.68;;
43248;SDS011;29216;51.248;6.808;2022-11-20T06:41:46;19.55;;;13.10;;
43248;SDS011;29216;51.248;6.808;2022-11-20T06:44:12;19.20;;;13.13;;
43248;SDS011;29216;51.248;6.808;2022-11-20T06:46:37;20.08;;;12.13;;
43248;SDS011;29216;51.248;6.808;2022-11-20T06:49:03;18.58;;;11.73;;
43248;SDS011;29216;51.248;6.808;2022-11-20T06:51:28;19.30;;;12.27;;
43248;SDS011;29216;51.248;6.808;2022-11-20T06:53:54;20.05;;;13.27;;
43248;SDS011;29216;51.248;6.808;2022-11-20T06:56:19;21.33;;;13.02;;
43248;SDS011;29216;51.248;6.808;2022-11-20T06:58:45;21.35;;;13.73;;
43248;SDS011;29216;51.248;6.808;2022-11-20T07:01:12;19.52;;;13.30;;
43248;SDS011;29216;51.248;6.808;2022-11-20T07:03:39;18.98;;;12.95;;
43248;SDS011;29216;51.248;6.808;2022-11-20T07:06:05;20.48;;;13.13;;
43248;SDS011;29216;51.248;6.808;2022-11-20T07:08:31;18.92;;;12.27;;
43248;SDS011;29216;51.248;6.808;2022-11-20T07:10:58;22.25;;;13.05;;
43248;SDS011;29216;51.248;6.808;2022-11-20T07:13:25;20.80;;;12.98;;
43248;SDS011;29216;51.248;6.808;2022-11-20T07:15:52;19.98;;;13.35;;
43248;SDS011;29216;51.248;6.808;2022-11-20T07:18:17;22.95;;;12.52;;
43248;SDS011;29216;51.248;6.808;2022-11-20T07:20:43;19.77;;;12.80;;
43248;SDS011;29216;51.248;6.808;2022-11-20T07:23:08;23.33;;;12.95;;
43248;SDS011;29216;51.248;6.808;2022-11-20T07:25:34;21.10;;;13.35;;
43248;SDS011;29216;51.248;6.808;2022-11-20T07:28:00;20.70;;;12.98;;
43248;SDS011;29216;51.248;6.808;2022-11-20T07:30:26;19.75;;;13.93;;
43248;SDS011;29216;51.248;6.808;2022-11-20T07:32:53;19.95;;;13.40;;
43248;SDS011;29216;51.248;6.808;2022-11-20T07:35:20;22.95;;;13.10;;
43248;SDS011;29216;51.248;6.808;2022-11-20T07:37:46;30.30;;;13.88;;
43248;SDS011;29216;51.248;6.808;2022-11-20T07:40:13;22.75;;;12.82;;
43248;SDS011;29216;51.248;6.808;2022-11-20T07:42:39;20.45;;;12.50;;
43248;SDS011;29216;51.248;6.808;2022-11-20T07:45:16;26.83;;;12.88;;
43248;SDS011;29216;51.248;6.808;2022-11-20T07:47:43;19.85;;;13.50;;
43248;SDS011;29216;51.248;6.808;2022-11-20T07:50:09;19.92;;;13.02;;
43248;SDS011;29216;51.248;6.808;2022-11-20T07:52:35;22.15;;;13.18;;
43248;SDS011;29216;51.248;6.808;2022-11-20T07:55:00;22.65;;;13.82;;
43248;SDS011;29216;51.248;6.808;2022-11-20T07:57:26;21.15;;;13.77;;
43248;SDS011;29216;51.248;6.808;2022-11-20T07:59:51;23.92;;;13.63;;
43248;SDS011;29216;51.248;6.808;2022-11-20T08:02:17;20.52;;;12.75;;
43248;SDS011;29216;51.248;6.808;2022-11-20T08:04:43;20.20;;;12.82;;
43248;SDS011;29216;51.248;6.808;2022-11-20T08:07:08;23.25;;;12.25;;
43248;SDS011;29216;51.248;6.808;2022-11-20T08:09:34;19.33;;;12.52;;
43248;SDS011;29216;51.248;6.808;2022-11-20T08:11:59;21.20;;;12.75;;
43248;SDS011;29216;51.248;6.808;2022-11-20T08:14:54;18.23;;;12.25;;
43248;SDS011;29216;51.248;6.808;2022-11-20T08:17:21;21.63;;;12.52;;
43248;SDS011;29216;51.248;6.808;2022-11-20T08:19:47;20.77;;;12.50;;
43248;SDS011;29216;51.248;6.808;2022-11-20T08:22:12;17.83;;;12.30;;
43248;SDS011;29216;51.248;6.808;2022-11-20T08:24:38;17.58;;;11.18;;
43248;SDS011;29216;51.248;6.808;2022-11-20T08:27:03;20.50;;;12.30;;
43248;SDS011;29216;51.248;6.808;2022-11-20T08:29:29;19.33;;;11.52;;
43248;SDS011;29216;51.248;6.808;2022-11-20T08:31:55;19.10;;;11.82;;
43248;SDS011;29216;51.248;6.808;2022-11-20T08:34:20;18.27;;;11.57;;
43248;SDS011;29216;51.248;6.808;2022-11-20T08:36:46;17.67;;;11.68;;
43248;SDS011;29216;51.248;6.808;2022-11-20T08:39:11;20.67;;;12.52;;
43248;SDS011;29216;51.248;6.808;2022-11-20T08:41:38;18.05;;;12.15;;
43248;SDS011;29216;51.248;6.808;2022-11-20T08:44:04;17.00;;;11.70;;
43248;SDS011;29216;51.248;6.808;2022-11-20T08:46:33;19.63;;;11.77;;
43248;SDS011;29216;51.248;6.808;2022-11-20T08:49:04;17.05;;;10.98;;
43248;SDS011;29216;51.248;6.808;2022-11-20T08:51:31;16.75;;;11.68;;
43248;SDS011;29216;51.248;6.808;2022-11-20T08:53:57;18.17;;;12.05;;
43248;SDS011;29216;51.248;6.808;2022-11-20T08:56:23;20.40;;;11.35;;
43248;SDS011;29216;51.248;6.808;2022-11-20T08:58:49;18.17;;;11.77;;
43248;SDS011;29216;51.248;6.808;2022-11-20T09:01:17;15.77;;;10.23;;
43248;SDS011;29216;51.248;6.808;2022-11-20T09:03:43;18.25;;;11.75;;
43248;SDS011;29216;51.248;6.808;2022-11-20T09:06:09;16.50;;;11.18;;
43248;SDS011;29216;51.248;6.808;2022-11-20T09:08:34;15.20;;;10.55;;
43248;SDS011;29216;51.248;6.808;2022-11-20T09:11:01;15.32;;;10.00;;
43248;SDS011;29216;51.248;6.808;2022-11-20T09:13:27;17.13;;;11.38;;
43248;SDS011;29216;51.248;6.808;2022-11-20T09:15:54;19.80;;;12.23;;
43248;SDS011;29216;51.248;6.808;2022-11-20T09:18:21;17.67;;;10.98;;
43248;SDS011;29216;51.248;6.808;2022-11-20T09:20:47;18.20;;;11.13;;
43248;SDS011;29216;51.248;6.808;2022-11-20T09:23:13;17.90;;;11.02;;
43248;SDS011;29216;51.248;6.808;2022-11-20T09:25:40;15.63;;;10.43;;
43248;SDS011;29216;51.248;6.808;2022-11-20T09:28:05;16.33;;;10.15;;
43248;SDS011;29216;51.248;6.808;2022-11-20T09:30:31;16.45;;;10.98;;
43248;SDS011;29216;51.248;6.808;2022-11-20T09:32:56;17.95;;;11.23;;
43248;SDS011;29216;51.248;6.808;2022-11-20T09:35:22;16.55;;;10.70;;
43248;SDS011;29216;51.248;6.808;2022-11-20T09:37:48;18.13;;;10.10;;
43248;SDS011;29216;51.248;6.808;2022-11-20T09:40:24;16.15;;;10.90;;
43248;SDS011;29216;51.248;6.808;2022-11-20T09:53:31;18.30;;;12.07;;
43248;SDS011;29216;51.248;6.808;2022-11-20T09:56:25;19.80;;;11.85;;
43248;SDS011;29216;51.248;6.808;2022-11-20T09:58:51;19.15;;;12.25;;
43248;SDS011;29216;51.248;6.808;2022-11-20T10:01:20;20.33;;;11.73;;
43248;SDS011;29216;51.248;6.808;2022-11-20T10:32:38;19.85;;;11.95;;
43248;SDS011;29216;51.248;6.808;2022-11-20T10:37:40;18.73;;;11.55;;
43248;SDS011;29216;51.248;6.808;2022-11-20T10:42:48;18.25;;;11.32;;
43248;SDS011;29216;51.248;6.808;2022-11-20T10:47:56;16.65;;;11.05;;
43248;SDS011;29216;51.248;6.808;2022-11-20T10:50:35;17.42;;;11.13;;
43248;SDS011;29216;51.248;6.808;2022-11-20T10:54:09;19.10;;;12.15;;
43248;SDS011;29216;51.248;6.808;2022-11-20T10:56:06;18.80;;;12.55;;
43248;SDS011;29216;51.248;6.808;2022-11-20T11:01:42;20.25;;;12.45;;
43248;SDS011;29216;51.248;6.808;2022-11-20T11:07:01;22.08;;;12.98;;
43248;SDS011;29216;51.248;6.808;2022-11-20T11:09:47;21.83;;;13.02;;
43248;SDS011;29216;51.248;6.808;2022-11-20T11:12:25;22.45;;;13.30;;
43248;SDS011;29216;51.248;6.808;2022-11-20T11:14:54;20.90;;;12.52;;
43248;SDS011;29216;51.248;6.808;2022-11-20T11:17:31;18.58;;;12.00;;
43248;SDS011;29216;51.248;6.808;2022-11-20T11:20:05;19.85;;;12.18;;
43248;SDS011;29216;51.248;6.808;2022-11-20T11:22:50;18.35;;;12.30;;
43248;SDS011;29216;51.248;6.808;2022-11-20T11:25:22;20.45;;;11.57;;
43248;SDS011;29216;51.248;6.808;2022-11-20T11:27:50;17.88;;;11.43;;
43248;SDS011;29216;51.248;6.808;2022-11-20T11:30:19;19.08;;;12.05;;
43248;SDS011;29216;51.248;6.808;2022-11-20T11:32:46;18.38;;;12.10;;
43248;SDS011;29216;51.248;6.808;2022-11-20T11:38:13;18.40;;;12.05;;
43248;SDS011;29216;51.248;6.808;2022-11-20T11:41:00;17.83;;;11.57;;
43248;SDS011;29216;51.248;6.808;2022-11-20T11:43:31;19.25;;;12.80;;
43248;SDS011;29216;51.248;6.808;2022-11-20T11:51:28;18.42;;;11.63;;
43248;SDS011;29216;51.248;6.808;2022-11-20T11:53:59;17.92;;;11.18;;
43248;SDS011;29216;51.248;6.808;2022-11-20T11:56:28;18.92;;;11.50;;
43248;SDS011;29216;51.248;6.808;2022-11-20T11:58:55;19.10;;;11.15;;
43248;SDS011;29216;51.248;6.808;2022-11-20T12:01:31;17.38;;;11.27;;
43248;SDS011;29216;51.248;6.808;2022-11-20T12:06:58;20.73;;;11.70;;
43248;SDS011;29216;51.248;6.808;2022-11-20T12:09:34;20.83;;;12.55;;
43248;SDS011;29216;51.248;6.808;2022-11-20T12:12:05;18.38;;;11.95;;
43248;SDS011;29216;51.248;6.808;2022-11-20T12:14:43;19.65;;;12.38;;
43248;SDS011;29216;51.248;6.808;2022-11-20T12:17:12;18.88;;;12.38;;
43248;SDS011;29216;51.248;6.808;2022-11-20T12:19:39;19.65;;;11.88;;
43248;SDS011;29216;51.248;6.808;2022-11-20T12:30:31;19.45;;;12.63;;
43248;SDS011;29216;51.248;6.808;2022-11-20T12:33:12;18.08;;;12.35;;
43248;SDS011;29216;51.248;6.808;2022-11-20T12:44:30;19.75;;;13.82;;
43248;SDS011;29216;51.248;6.808;2022-11-20T12:48:02;18.50;;;12.00;;
43248;SDS011;29216;51.248;6.808;2022-11-20T12:56:35;21.15;;;12.93;;
43248;SDS011;29216;51.248;6.808;2022-11-20T13:02:09;20.85;;;13.80;;
43248;SDS011;29216;51.248;6.808;2022-11-20T13:04:44;23.30;;;13.75;;
43248;SDS011;29216;51.248;6.808;2022-11-20T13:07:13;23.70;;;14.13;;
43248;SDS011;29216;51.248;6.808;2022-11-20T13:09:43;21.67;;;14.30;;
43248;SDS011;29216;51.248;6.808;2022-11-20T13:12:13;24.80;;;14.50;;
43248;SDS011;29216;51.248;6.808;2022-11-20T13:17:47;23.80;;;13.73;;
43248;SDS011;29216;51.248;6.808;2022-11-20T13:20:22;25.42;;;14.63;;
43248;SDS011;29216;51.248;6.808;2022-11-20T13:22:52;22.08;;;14.07;;
43248;SDS011;29216;51.248;6.808;2022-11-20T13:25:28;26.08;;;15.25;;
43248;SDS011;29216;51.248;6.808;2022-11-20T13:30:51;23.58;;;14.60;;
43248;SDS011;29216;51.248;6.808;2022-11-20T13:33:27;24.05;;;14.65;;
43248;SDS011;29216;51.248;6.808;2022-11-20T13:35:58;24.83;;;14.48;;
43248;SDS011;29216;51.248;6.808;2022-11-20T13:38:46;25.85;;;15.50;;
43248;SDS011;29216;51.248;6.808;2022-11-20T13:41:23;25.63;;;15.55;;
43248;SDS011;29216;51.248;6.808;2022-11-20T13:44:13;25.98;;;14.65;;
43248;SDS011;29216;51.248;6.808;2022-11-20T13:46:50;27.50;;;16.63;;
43248;SDS011;29216;51.248;6.808;2022-11-20T13:51:48;26.02;;;15.23;;
43248;SDS011;29216;51.248;6.808;2022-11-20T14:00:18;23.60;;;14.93;;
43248;SDS011;29216;51.248;6.808;2022-11-20T14:02:43;22.75;;;13.95;;
43248;SDS011;29216;51.248;6.808;2022-11-20T14:05:19;23.50;;;14.93;;
43248;SDS011;29216;51.248;6.808;2022-11-20T14:07:47;26.55;;;15.65;;
43248;SDS011;29216;51.248;6.808;2022-11-20T14:12:50;24.88;;;15.27;;
43248;SDS011;29216;51.248;6.808;2022-11-20T14:15:25;25.58;;;14.77;;
43248;SDS011;29216;51.248;6.808;2022-11-20T14:17:56;24.13;;;14.70;;
43248;SDS011;29216;51.248;6.808;2022-11-20T14:20:24;25.38;;;15.57;;
43248;SDS011;29216;51.248;6.808;2022-11-20T14:22:52;23.20;;;14.43;;
43248;SDS011;29216;51.248;6.808;2022-11-20T14:27:52;27.13;;;15.05;;
43248;SDS011;29216;51.248;6.808;2022-11-20T14:30:21;24.25;;;14.68;;
43248;SDS011;29216;51.248;6.808;2022-11-20T14:32:49;24.88;;;15.10;;
43248;SDS011;29216;51.248;6.808;2022-11-20T14:35:20;25.75;;;14.95;;
43248;SDS011;29216;51.248;6.808;2022-11-20T14:37:55;26.30;;;15.20;;
43248;SDS011;29216;51.248;6.808;2022-11-20T14:40:23;21.65;;;13.73;;
43248;SDS011;29216;51.248;6.808;2022-11-20T14:43:00;25.13;;;15.15;;
43248;SDS011;29216;51.248;6.808;2022-11-20T14:45:27;29.15;;;16.55;;
43248;SDS011;29216;51.248;6.808;2022-11-20T14:47:55;25.35;;;14.73;;
43248;SDS011;29216;51.248;6.808;2022-11-20T14:50:23;25.63;;;15.02;;
43248;SDS011;29216;51.248;6.808;2022-11-20T14:52:55;25.30;;;15.60;;
43248;SDS011;29216;51.248;6.808;2022-11-20T14:55:34;23.50;;;14.55;;
43248;SDS011;29216;51.248;6.808;2022-11-20T14:58:23;25.77;;;15.40;;
43248;SDS011;29216;51.248;6.808;2022-11-20T15:03:35;23.17;;;14.52;;
43248;SDS011;29216;51.248;6.808;2022-11-20T15:06:03;26.30;;;14.18;;
43248;SDS011;29216;51.248;6.808;2022-11-20T15:08:30;23.48;;;15.10;;
43248;SDS011;29216;51.248;6.808;2022-11-20T15:10:55;24.10;;;14.10;;
43248;SDS011;29216;51.248;6.808;2022-11-20T15:13:32;23.83;;;14.55;;
43248;SDS011;29216;51.248;6.808;2022-11-20T15:16:01;25.60;;;15.43;;
43248;SDS011;29216;51.248;6.808;2022-11-20T15:21:09;21.38;;;13.07;;
43248;SDS011;29216;51.248;6.808;2022-11-20T15:23:36;26.45;;;13.77;;
43248;SDS011;29216;51.248;6.808;2022-11-20T15:26:04;25.35;;;14.60;;
43248;SDS011;29216;51.248;6.808;2022-11-20T15:28:31;22.67;;;13.57;;
43248;SDS011;29216;51.248;6.808;2022-11-20T15:31:00;23.80;;;14.10;;
43248;SDS011;29216;51.248;6.808;2022-11-20T15:33:27;28.63;;;15.35;;
43248;SDS011;29216;51.248;6.808;2022-11-20T15:35:53;24.63;;;14.05;;
43248;SDS011;29216;51.248;6.808;2022-11-20T15:38:19;23.00;;;12.43;;
43248;SDS011;29216;51.248;6.808;2022-11-20T15:40:45;22.65;;;13.93;;
43248;SDS011;29216;51.248;6.808;2022-11-20T15:43:10;23.83;;;13.55;;
43248;SDS011;29216;51.248;6.808;2022-11-20T15:48:53;26.85;;;14.57;;
43248;SDS011;29216;51.248;6.808;2022-11-20T15:51:33;26.77;;;14.35;;
43248;SDS011;29216;51.248;6.808;2022-11-20T15:54:00;22.75;;;13.75;;
43248;SDS011;29216;51.248;6.808;2022-11-20T15:56:36;25.60;;;14.80;;
43248;SDS011;29216;51.248;6.808;2022-11-20T15:59:02;24.17;;;13.95;;
43248;SDS011;29216;51.248;6.808;2022-11-20T16:01:28;28.38;;;15.57;;
43248;SDS011;29216;51.248;6.808;2022-11-20T16:03:53;26.23;;;15.02;;
43248;SDS011;29216;51.248;6.808;2022-11-20T16:06:19;27.67;;;14.68;;
43248;SDS011;29216;51.248;6.808;2022-11-20T16:08:45;26.00;;;14.65;;
43248;SDS011;29216;51.248;6.808;2022-11-20T16:11:14;27.55;;;15.55;;
43248;SDS011;29216;51.248;6.808;2022-11-20T16:13:41;28.58;;;15.32;;
43248;SDS011;29216;51.248;6.808;2022-11-20T16:16:27;28.65;;;15.82;;
43248;SDS011;29216;51.248;6.808;2022-11-20T16:18:56;28.27;;;15.50;;
43248;SDS011;29216;51.248;6.808;2022-11-20T16:21:22;26.17;;;15.23;;
43248;SDS011;29216;51.248;6.808;2022-11-20T16:24:03;28.55;;;14.88;;
43248;SDS011;29216;51.248;6.808;2022-11-20T16:28:56;24.42;;;15.20;;
43248;SDS011;29216;51.248;6.808;2022-11-20T16:31:24;31.52;;;16.23;;
43248;SDS011;29216;51.248;6.808;2022-11-20T16:33:53;27.40;;;15.40;;
43248;SDS011;29216;51.248;6.808;2022-11-20T16:36:21;24.27;;;14.52;;
43248;SDS011;29216;51.248;6.808;2022-11-20T16:38:51;25.48;;;15.70;;
43248;SDS011;29216;51.248;6.808;2022-11-20T16:41:22;30.38;;;15.93;;
43248;SDS011;29216;51.248;6.808;2022-11-20T16:43:49;26.05;;;14.90;;
43248;SDS011;29216;51.248;6.808;2022-11-20T16:46:17;30.92;;;15.90;;